sensor_id;sensor_type;location;lat;lon;timestamp;P1;durP1;ratioP1;P2;durP2;ratioP2
5696;SDS011;2873;50.966;7.210;2024-02-23T00:01:50;2.50;;;0.50;;
5696;SDS011;2873;50.966;7.210;2024-02-23T00:04:16;2.13;;;0.80;;
5696;SDS011;2873;50.966;7.210;2024-02-23T00:06:43;1.60;;;0.40;;
5696;SDS011;2873;50.966;7.210;2024-02-23T00:09:09;0.95;;;0.50;;
5696;SDS011;2873;50.966;7.210;2024-02-23T00:11:35;1.40;;;0.40;;
5696;SDS011;2873;50.966;7.210;2024-02-23T00:14:04;1.10;;;0.40;;
5696;SDS011;2873;50.966;7.210;2024-02-23T00:16:30;0.50;;;0.40;;
5696;SDS011;2873;50.966;7.210;2024-02-23T00:18:56;0.65;;;0.65;;
5696;SDS011;2873;50.966;7.210;2024-02-23T00:21:21;0.60;;;0.50;;
5696;SDS011;2873;50.966;7.210;2024-02-23T00:23:46;0.70;;;0.50;;
5696;SDS011;2873;50.966;7.210;2024-02-23T00:26:12;1.20;;;0.50;;
5696;SDS011;2873;50.966;7.210;2024-02-23T00:28:37;0.70;;;0.30;;
5696;SDS011;2873;50.966;7.210;2024-02-23T00:31:03;0.50;;;0.40;;
5696;SDS011;2873;50.966;7.210;2024-02-23T00:33:28;0.50;;;0.40;;
5696;SDS011;2873;50.966;7.210;2024-02-23T00:35:54;0.70;;;0.50;;
5696;SDS011;2873;50.966;7.210;2024-02-23T00:38:20;0.50;;;0.50;;
5696;SDS011;2873;50.966;7.210;2024-02-23T00:40:46;0.30;;;0.30;;
5696;SDS011;2873;50.966;7.210;2024-02-23T00:43:11;1.23;;;0.57;;
5696;SDS011;2873;50.966;7.210;2024-02-23T00:45:37;0.70;;;0.50;;
5696;SDS011;2873;50.966;7.210;2024-02-23T00:48:02;0.87;;;0.40;;
5696;SDS011;2873;50.966;7.210;2024-02-23T00:50:28;2.00;;;0.60;;
5696;SDS011;2873;50.966;7.210;2024-02-23T00:52:54;0.50;;;0.40;;
5696;SDS011;2873;50.966;7.210;2024-02-23T00:55:19;0.65;;;0.40;;
5696;SDS011;2873;50.966;7.210;2024-02-23T00:57:45;0.50;;;0.50;;
5696;SDS011;2873;50.966;7.210;2024-02-23T01:00:11;1.00;;;0.50;;
5696;SDS011;2873;50.966;7.210;2024-02-23T01:02:37;1.30;;;0.50;;
5696;SDS011;2873;50.966;7.210;2024-02-23T01:05:03;2.47;;;0.40;;
5696;SDS011;2873;50.966;7.210;2024-02-23T01:07:29;0.60;;;0.50;;
5696;SDS011;2873;50.966;7.210;2024-02-23T01:09:55;0.60;;;0.40;;
5696;SDS011;2873;50.966;7.210;2024-02-23T01:12:21;1.60;;;0.70;;
5696;SDS011;2873;50.966;7.210;2024-02-23T01:14:46;0.70;;;0.40;;
5696;SDS011;2873;50.966;7.210;2024-02-23T01:17:13;1.10;;;0.40;;
5696;SDS011;2873;50.966;7.210;2024-02-23T01:19:40;2.42;;;0.40;;
5696;SDS011;2873;50.966;7.210;2024-02-23T01:22:06;0.60;;;0.60;;
5696;SDS011;2873;50.966;7.210;2024-02-23T01:24:32;1.00;;;0.50;;
5696;SDS011;2873;50.966;7.210;2024-02-23T01:26:57;1.60;;;0.60;;
5696;SDS011;2873;50.966;7.210;2024-02-23T01:29:25;0.90;;;0.80;;
5696;SDS011;2873;50.966;7.210;2024-02-23T01:31:51;0.60;;;0.50;;
5696;SDS011;2873;50.966;7.210;2024-02-23T01:34:17;3.57;;;0.50;;
5696;SDS011;2873;50.966;7.210;2024-02-23T01:36:43;0.43;;;0.43;;
5696;SDS011;2873;50.966;7.210;2024-02-23T01:39:08;0.60;;;0.50;;
5696;SDS011;2873;50.966;7.210;2024-02-23T01:41:34;0.50;;;0.50;;
5696;SDS011;2873;50.966;7.210;2024-02-23T01:44:00;0.50;;;0.50;;
5696;SDS011;2873;50.966;7.210;2024-02-23T01:46:26;0.50;;;0.50;;
5696;SDS011;2873;50.966;7.210;2024-02-23T01:48:51;1.80;;;0.60;;
5696;SDS011;2873;50.966;7.210;2024-02-23T01:51:17;0.70;;;0.50;;
5696;SDS011;2873;50.966;7.210;2024-02-23T01:53:43;1.60;;;0.50;;
5696;SDS011;2873;50.966;7.210;2024-02-23T01:56:09;1.10;;;0.57;;
5696;SDS011;2873;50.966;7.210;2024-02-23T01:58:37;1.27;;;0.40;;
5696;SDS011;2873;50.966;7.210;2024-02-23T02:01:03;2.00;;;0.40;;
5696;SDS011;2873;50.966;7.210;2024-02-23T02:03:29;3.00;;;0.40;;
5696;SDS011;2873;50.966;7.210;2024-02-23T02:05:55;1.13;;;0.40;;
5696;SDS011;2873;50.966;7.210;2024-02-23T02:08:23;1.13;;;0.63;;
5696;SDS011;2873;50.966;7.210;2024-02-23T02:10:51;2.90;;;0.60;;
5696;SDS011;2873;50.966;7.210;2024-02-23T02:13:16;1.20;;;0.40;;
5696;SDS011;2873;50.966;7.210;2024-02-23T02:15:42;1.50;;;0.60;;
5696;SDS011;2873;50.966;7.210;2024-02-23T02:18:11;0.60;;;0.50;;
5696;SDS011;2873;50.966;7.210;2024-02-23T02:20:37;4.50;;;0.50;;
5696;SDS011;2873;50.966;7.210;2024-02-23T02:23:12;1.75;;;0.40;;
5696;SDS011;2873;50.966;7.210;2024-02-23T02:25:38;0.90;;;0.50;;
5696;SDS011;2873;50.966;7.210;2024-02-23T02:28:05;3.05;;;0.90;;
5696;SDS011;2873;50.966;7.210;2024-02-23T02:30:32;1.02;;;0.70;;
5696;SDS011;2873;50.966;7.210;2024-02-23T02:32:57;0.93;;;0.40;;
5696;SDS011;2873;50.966;7.210;2024-02-23T02:35:23;1.10;;;0.50;;
5696;SDS011;2873;50.966;7.210;2024-02-23T02:37:49;0.70;;;0.50;;
5696;SDS011;2873;50.966;7.210;2024-02-23T02:40:14;1.83;;;0.50;;
5696;SDS011;2873;50.966;7.210;2024-02-23T02:42:40;0.82;;;0.50;;
5696;SDS011;2873;50.966;7.210;2024-02-23T02:45:05;2.90;;;0.80;;
5696;SDS011;2873;50.966;7.210;2024-02-23T02:47:31;1.52;;;0.40;;
5696;SDS011;2873;50.966;7.210;2024-02-23T02:49:57;2.05;;;0.40;;
5696;SDS011;2873;50.966;7.210;2024-02-23T02:52:23;1.90;;;0.50;;
5696;SDS011;2873;50.966;7.210;2024-02-23T02:54:49;0.43;;;0.30;;
5696;SDS011;2873;50.966;7.210;2024-02-23T02:57:15;1.10;;;0.40;;
5696;SDS011;2873;50.966;7.210;2024-02-23T02:59:41;0.90;;;0.50;;
5696;SDS011;2873;50.966;7.210;2024-02-23T03:02:06;2.50;;;0.43;;
5696;SDS011;2873;50.966;7.210;2024-02-23T03:04:32;1.10;;;0.40;;
5696;SDS011;2873;50.966;7.210;2024-02-23T03:06:57;3.50;;;0.40;;
5696;SDS011;2873;50.966;7.210;2024-02-23T03:09:23;2.70;;;0.40;;
5696;SDS011;2873;50.966;7.210;2024-02-23T03:11:48;2.40;;;0.40;;
5696;SDS011;2873;50.966;7.210;2024-02-23T03:14:14;0.80;;;0.40;;
5696;SDS011;2873;50.966;7.210;2024-02-23T03:16:39;0.93;;;0.40;;
5696;SDS011;2873;50.966;7.210;2024-02-23T03:19:05;2.20;;;0.40;;
5696;SDS011;2873;50.966;7.210;2024-02-23T03:21:32;1.70;;;0.40;;
5696;SDS011;2873;50.966;7.210;2024-02-23T03:23:58;3.83;;;0.50;;
5696;SDS011;2873;50.966;7.210;2024-02-23T03:26:23;1.67;;;0.45;;
5696;SDS011;2873;50.966;7.210;2024-02-23T03:28:49;1.80;;;0.47;;
5696;SDS011;2873;50.966;7.210;2024-02-23T03:31:15;2.00;;;0.40;;
5696;SDS011;2873;50.966;7.210;2024-02-23T03:33:40;0.97;;;0.50;;
5696;SDS011;2873;50.966;7.210;2024-02-23T03:36:06;1.30;;;0.40;;
5696;SDS011;2873;50.966;7.210;2024-02-23T03:38:31;0.80;;;0.40;;
5696;SDS011;2873;50.966;7.210;2024-02-23T03:40:58;3.80;;;0.60;;
5696;SDS011;2873;50.966;7.210;2024-02-23T03:43:24;3.33;;;0.50;;
5696;SDS011;2873;50.966;7.210;2024-02-23T03:45:50;1.63;;;0.40;;
5696;SDS011;2873;50.966;7.210;2024-02-23T03:48:15;2.60;;;0.47;;
5696;SDS011;2873;50.966;7.210;2024-02-23T03:50:41;0.80;;;0.40;;
5696;SDS011;2873;50.966;7.210;2024-02-23T03:53:06;1.80;;;0.50;;
5696;SDS011;2873;50.966;7.210;2024-02-23T03:55:32;0.90;;;0.40;;
5696;SDS011;2873;50.966;7.210;2024-02-23T03:57:57;1.40;;;0.53;;
5696;SDS011;2873;50.966;7.210;2024-02-23T04:00:23;6.00;;;0.50;;
5696;SDS011;2873;50.966;7.210;2024-02-23T04:02:49;3.90;;;0.60;;
5696;SDS011;2873;50.966;7.210;2024-02-23T04:05:14;3.20;;;0.60;;
5696;SDS011;2873;50.966;7.210;2024-02-23T04:07:40;1.90;;;0.50;;
5696;SDS011;2873;50.966;7.210;2024-02-23T04:10:06;2.00;;;0.60;;
5696;SDS011;2873;50.966;7.210;2024-02-23T04:12:32;1.80;;;0.50;;
5696;SDS011;2873;50.966;7.210;2024-02-23T04:14:57;1.95;;;0.50;;
5696;SDS011;2873;50.966;7.210;2024-02-23T04:17:23;2.07;;;0.60;;
5696;SDS011;2873;50.966;7.210;2024-02-23T04:19:48;2.50;;;0.50;;
5696;SDS011;2873;50.966;7.210;2024-02-23T04:22:14;1.50;;;0.40;;
5696;SDS011;2873;50.966;7.210;2024-02-23T04:24:40;2.50;;;0.90;;
5696;SDS011;2873;50.966;7.210;2024-02-23T04:27:06;1.45;;;0.70;;
5696;SDS011;2873;50.966;7.210;2024-02-23T04:29:32;2.20;;;0.50;;
5696;SDS011;2873;50.966;7.210;2024-02-23T04:32:02;2.38;;;0.50;;
5696;SDS011;2873;50.966;7.210;2024-02-23T04:34:28;3.60;;;0.50;;
5696;SDS011;2873;50.966;7.210;2024-02-23T04:36:54;1.90;;;0.40;;
5696;SDS011;2873;50.966;7.210;2024-02-23T04:39:20;2.28;;;0.43;;
5696;SDS011;2873;50.966;7.210;2024-02-23T04:41:46;1.40;;;0.35;;
5696;SDS011;2873;50.966;7.210;2024-02-23T04:44:11;1.20;;;0.40;;
5696;SDS011;2873;50.966;7.210;2024-02-23T04:46:37;0.90;;;0.40;;
5696;SDS011;2873;50.966;7.210;2024-02-23T04:49:02;3.70;;;0.40;;
5696;SDS011;2873;50.966;7.210;2024-02-23T04:51:28;4.10;;;0.50;;
5696;SDS011;2873;50.966;7.210;2024-02-23T04:53:53;0.50;;;0.40;;
5696;SDS011;2873;50.966;7.210;2024-02-23T04:56:19;1.90;;;0.50;;
5696;SDS011;2873;50.966;7.210;2024-02-23T04:58:45;2.53;;;0.60;;
5696;SDS011;2873;50.966;7.210;2024-02-23T05:01:11;0.93;;;0.47;;
5696;SDS011;2873;50.966;7.210;2024-02-23T05:03:37;2.17;;;0.60;;
5696;SDS011;2873;50.966;7.210;2024-02-23T05:06:03;0.80;;;0.50;;
5696;SDS011;2873;50.966;7.210;2024-02-23T05:08:29;1.10;;;0.40;;
5696;SDS011;2873;50.966;7.210;2024-02-23T05:10:55;0.90;;;0.40;;
5696;SDS011;2873;50.966;7.210;2024-02-23T05:13:22;0.50;;;0.50;;
5696;SDS011;2873;50.966;7.210;2024-02-23T05:15:48;1.83;;;0.60;;
5696;SDS011;2873;50.966;7.210;2024-02-23T05:18:13;4.00;;;0.53;;
5696;SDS011;2873;50.966;7.210;2024-02-23T05:20:39;0.60;;;0.50;;
5696;SDS011;2873;50.966;7.210;2024-02-23T05:23:04;3.00;;;0.70;;
5696;SDS011;2873;50.966;7.210;2024-02-23T05:25:30;2.77;;;0.70;;
5696;SDS011;2873;50.966;7.210;2024-02-23T05:27:56;2.47;;;0.60;;
5696;SDS011;2873;50.966;7.210;2024-02-23T05:30:21;1.03;;;0.50;;
5696;SDS011;2873;50.966;7.210;2024-02-23T05:32:47;4.17;;;0.80;;
5696;SDS011;2873;50.966;7.210;2024-02-23T05:35:13;0.82;;;0.30;;
5696;SDS011;2873;50.966;7.210;2024-02-23T05:37:40;3.35;;;0.50;;
5696;SDS011;2873;50.966;7.210;2024-02-23T05:40:06;1.10;;;0.50;;
5696;SDS011;2873;50.966;7.210;2024-02-23T05:42:35;2.47;;;0.57;;
5696;SDS011;2873;50.966;7.210;2024-02-23T05:45:01;1.13;;;0.73;;
5696;SDS011;2873;50.966;7.210;2024-02-23T05:47:26;2.20;;;0.60;;
5696;SDS011;2873;50.966;7.210;2024-02-23T05:49:53;6.28;;;0.90;;
5696;SDS011;2873;50.966;7.210;2024-02-23T05:52:18;1.58;;;0.70;;
5696;SDS011;2873;50.966;7.210;2024-02-23T05:54:44;6.20;;;0.70;;
5696;SDS011;2873;50.966;7.210;2024-02-23T05:57:09;2.80;;;0.60;;
5696;SDS011;2873;50.966;7.210;2024-02-23T05:59:35;2.80;;;0.57;;
5696;SDS011;2873;50.966;7.210;2024-02-23T06:02:00;1.80;;;0.60;;
5696;SDS011;2873;50.966;7.210;2024-02-23T06:04:26;3.47;;;1.25;;
5696;SDS011;2873;50.966;7.210;2024-02-23T06:06:52;5.10;;;2.13;;
5696;SDS011;2873;50.966;7.210;2024-02-23T06:09:18;5.13;;;1.40;;
5696;SDS011;2873;50.966;7.210;2024-02-23T06:11:44;6.30;;;1.98;;
5696;SDS011;2873;50.966;7.210;2024-02-23T06:14:09;3.60;;;1.15;;
5696;SDS011;2873;50.966;7.210;2024-02-23T06:16:36;1.60;;;0.70;;
5696;SDS011;2873;50.966;7.210;2024-02-23T06:19:02;5.70;;;1.00;;
5696;SDS011;2873;50.966;7.210;2024-02-23T06:21:28;1.00;;;0.73;;
5696;SDS011;2873;50.966;7.210;2024-02-23T06:23:54;3.80;;;1.10;;
5696;SDS011;2873;50.966;7.210;2024-02-23T06:26:20;12.67;;;0.90;;
5696;SDS011;2873;50.966;7.210;2024-02-23T06:28:46;2.10;;;0.70;;
5696;SDS011;2873;50.966;7.210;2024-02-23T06:31:12;3.70;;;1.30;;
5696;SDS011;2873;50.966;7.210;2024-02-23T06:33:37;4.15;;;0.70;;
5696;SDS011;2873;50.966;7.210;2024-02-23T06:36:03;1.80;;;0.80;;
5696;SDS011;2873;50.966;7.210;2024-02-23T06:38:29;4.63;;;0.70;;
5696;SDS011;2873;50.966;7.210;2024-02-23T06:40:55;5.80;;;0.70;;
5696;SDS011;2873;50.966;7.210;2024-02-23T06:43:21;1.85;;;0.77;;
5696;SDS011;2873;50.966;7.210;2024-02-23T06:45:47;3.50;;;1.00;;
5696;SDS011;2873;50.966;7.210;2024-02-23T06:48:12;3.83;;;0.90;;
5696;SDS011;2873;50.966;7.210;2024-02-23T06:50:38;4.83;;;0.80;;
5696;SDS011;2873;50.966;7.210;2024-02-23T06:53:03;4.70;;;0.70;;
5696;SDS011;2873;50.966;7.210;2024-02-23T06:55:31;8.32;;;0.73;;
5696;SDS011;2873;50.966;7.210;2024-02-23T06:57:58;6.95;;;0.77;;
5696;SDS011;2873;50.966;7.210;2024-02-23T07:00:23;3.30;;;0.90;;
5696;SDS011;2873;50.966;7.210;2024-02-23T07:02:49;2.30;;;0.70;;
5696;SDS011;2873;50.966;7.210;2024-02-23T07:05:14;4.50;;;0.90;;
5696;SDS011;2873;50.966;7.210;2024-02-23T07:07:40;6.70;;;0.90;;
5696;SDS011;2873;50.966;7.210;2024-02-23T07:10:06;3.45;;;1.10;;
5696;SDS011;2873;50.966;7.210;2024-02-23T07:12:33;4.03;;;0.73;;
5696;SDS011;2873;50.966;7.210;2024-02-23T07:14:58;5.63;;;1.00;;
5696;SDS011;2873;50.966;7.210;2024-02-23T07:17:24;3.80;;;0.80;;
5696;SDS011;2873;50.966;7.210;2024-02-23T07:19:50;3.10;;;0.70;;
5696;SDS011;2873;50.966;7.210;2024-02-23T07:22:16;3.03;;;0.77;;
5696;SDS011;2873;50.966;7.210;2024-02-23T07:24:48;2.90;;;0.70;;
5696;SDS011;2873;50.966;7.210;2024-02-23T07:27:14;3.42;;;1.00;;
5696;SDS011;2873;50.966;7.210;2024-02-23T07:29:40;3.00;;;0.90;;
5696;SDS011;2873;50.966;7.210;2024-02-23T07:32:05;5.95;;;0.98;;
5696;SDS011;2873;50.966;7.210;2024-02-23T07:34:31;3.60;;;0.77;;
5696;SDS011;2873;50.966;7.210;2024-02-23T07:36:57;2.30;;;0.60;;
5696;SDS011;2873;50.966;7.210;2024-02-23T07:39:22;5.43;;;0.80;;
5696;SDS011;2873;50.966;7.210;2024-02-23T07:41:48;1.97;;;0.80;;
5696;SDS011;2873;50.966;7.210;2024-02-23T07:44:14;5.68;;;0.90;;
5696;SDS011;2873;50.966;7.210;2024-02-23T07:46:39;6.40;;;1.30;;
5696;SDS011;2873;50.966;7.210;2024-02-23T07:49:05;3.87;;;0.97;;
5696;SDS011;2873;50.966;7.210;2024-02-23T07:51:33;1.60;;;0.90;;
5696;SDS011;2873;50.966;7.210;2024-02-23T07:53:58;6.78;;;1.08;;
5696;SDS011;2873;50.966;7.210;2024-02-23T07:56:24;3.20;;;1.20;;
5696;SDS011;2873;50.966;7.210;2024-02-23T07:58:50;14.27;;;1.03;;
5696;SDS011;2873;50.966;7.210;2024-02-23T08:01:16;7.75;;;1.02;;
5696;SDS011;2873;50.966;7.210;2024-02-23T08:03:42;3.42;;;1.20;;
5696;SDS011;2873;50.966;7.210;2024-02-23T08:06:07;5.47;;;1.33;;
5696;SDS011;2873;50.966;7.210;2024-02-23T08:08:33;4.10;;;1.00;;
5696;SDS011;2873;50.966;7.210;2024-02-23T08:11:01;3.40;;;0.80;;
5696;SDS011;2873;50.966;7.210;2024-02-23T08:13:27;6.38;;;0.98;;
5696;SDS011;2873;50.966;7.210;2024-02-23T08:15:53;2.72;;;1.20;;
5696;SDS011;2873;50.966;7.210;2024-02-23T08:18:18;6.97;;;1.20;;
5696;SDS011;2873;50.966;7.210;2024-02-23T08:20:44;4.63;;;1.33;;
5696;SDS011;2873;50.966;7.210;2024-02-23T08:23:09;6.10;;;1.80;;
5696;SDS011;2873;50.966;7.210;2024-02-23T08:25:35;4.50;;;1.00;;
5696;SDS011;2873;50.966;7.210;2024-02-23T08:28:01;3.78;;;0.93;;
5696;SDS011;2873;50.966;7.210;2024-02-23T08:30:27;3.40;;;1.20;;
5696;SDS011;2873;50.966;7.210;2024-02-23T08:32:53;9.67;;;1.10;;
5696;SDS011;2873;50.966;7.210;2024-02-23T08:35:18;2.47;;;0.90;;
5696;SDS011;2873;50.966;7.210;2024-02-23T08:37:44;4.43;;;0.70;;
5696;SDS011;2873;50.966;7.210;2024-02-23T08:40:10;1.53;;;0.77;;
5696;SDS011;2873;50.966;7.210;2024-02-23T08:42:36;4.93;;;0.70;;
5696;SDS011;2873;50.966;7.210;2024-02-23T08:45:02;4.03;;;1.00;;
5696;SDS011;2873;50.966;7.210;2024-02-23T08:47:27;3.83;;;1.02;;
5696;SDS011;2873;50.966;7.210;2024-02-23T08:49:57;3.95;;;0.85;;
5696;SDS011;2873;50.966;7.210;2024-02-23T08:52:23;6.10;;;1.20;;
5696;SDS011;2873;50.966;7.210;2024-02-23T08:54:48;0.70;;;0.70;;
5696;SDS011;2873;50.966;7.210;2024-02-23T08:57:14;3.93;;;0.90;;
5696;SDS011;2873;50.966;7.210;2024-02-23T08:59:44;3.30;;;0.70;;
5696;SDS011;2873;50.966;7.210;2024-02-23T09:02:10;5.15;;;0.90;;
5696;SDS011;2873;50.966;7.210;2024-02-23T09:04:35;4.87;;;0.80;;
5696;SDS011;2873;50.966;7.210;2024-02-23T09:07:01;2.67;;;0.70;;
5696;SDS011;2873;50.966;7.210;2024-02-23T09:09:27;4.72;;;0.90;;
5696;SDS011;2873;50.966;7.210;2024-02-23T09:11:52;1.60;;;0.93;;
5696;SDS011;2873;50.966;7.210;2024-02-23T09:14:18;8.60;;;1.27;;
5696;SDS011;2873;50.966;7.210;2024-02-23T09:16:43;1.53;;;0.70;;
5696;SDS011;2873;50.966;7.210;2024-02-23T09:19:11;8.90;;;0.97;;
5696;SDS011;2873;50.966;7.210;2024-02-23T09:21:37;1.70;;;0.90;;
5696;SDS011;2873;50.966;7.210;2024-02-23T09:24:03;1.70;;;0.67;;
5696;SDS011;2873;50.966;7.210;2024-02-23T09:26:29;2.70;;;0.80;;
5696;SDS011;2873;50.966;7.210;2024-02-23T09:28:56;3.97;;;0.90;;
5696;SDS011;2873;50.966;7.210;2024-02-23T09:31:21;3.23;;;0.90;;
5696;SDS011;2873;50.966;7.210;2024-02-23T09:33:47;1.10;;;0.70;;
5696;SDS011;2873;50.966;7.210;2024-02-23T09:36:15;5.35;;;0.90;;
5696;SDS011;2873;50.966;7.210;2024-02-23T09:38:41;4.20;;;0.87;;
5696;SDS011;2873;50.966;7.210;2024-02-23T09:41:08;6.73;;;1.10;;
5696;SDS011;2873;50.966;7.210;2024-02-23T09:43:45;2.58;;;0.90;;
5696;SDS011;2873;50.966;7.210;2024-02-23T09:46:13;3.42;;;0.75;;
5696;SDS011;2873;50.966;7.210;2024-02-23T09:48:39;3.05;;;1.00;;
5696;SDS011;2873;50.966;7.210;2024-02-23T09:51:07;2.92;;;0.90;;
5696;SDS011;2873;50.966;7.210;2024-02-23T09:53:35;1.60;;;0.90;;
5696;SDS011;2873;50.966;7.210;2024-02-23T09:56:02;4.75;;;0.90;;
5696;SDS011;2873;50.966;7.210;2024-02-23T09:58:29;3.38;;;1.00;;
5696;SDS011;2873;50.966;7.210;2024-02-23T10:00:58;2.95;;;0.70;;
5696;SDS011;2873;50.966;7.210;2024-02-23T10:03:27;3.50;;;0.60;;
5696;SDS011;2873;50.966;7.210;2024-02-23T10:05:57;1.70;;;0.80;;
5696;SDS011;2873;50.966;7.210;2024-02-23T10:08:22;2.47;;;0.90;;
5696;SDS011;2873;50.966;7.210;2024-02-23T10:10:48;1.60;;;0.80;;
5696;SDS011;2873;50.966;7.210;2024-02-23T10:13:22;2.83;;;0.77;;
5696;SDS011;2873;50.966;7.210;2024-02-23T10:15:51;3.00;;;0.50;;
5696;SDS011;2873;50.966;7.210;2024-02-23T10:18:17;1.60;;;0.70;;
5696;SDS011;2873;50.966;7.210;2024-02-23T10:20:43;4.10;;;0.80;;
5696;SDS011;2873;50.966;7.210;2024-02-23T10:23:09;4.68;;;1.08;;
5696;SDS011;2873;50.966;7.210;2024-02-23T10:25:36;3.95;;;0.65;;
5696;SDS011;2873;50.966;7.210;2024-02-23T10:28:02;3.47;;;1.13;;
5696;SDS011;2873;50.966;7.210;2024-02-23T10:30:29;0.98;;;0.50;;
5696;SDS011;2873;50.966;7.210;2024-02-23T10:32:55;1.60;;;0.50;;
5696;SDS011;2873;50.966;7.210;2024-02-23T10:35:22;1.80;;;0.60;;
5696;SDS011;2873;50.966;7.210;2024-02-23T10:37:49;3.40;;;0.50;;
5696;SDS011;2873;50.966;7.210;2024-02-23T10:40:16;3.28;;;0.40;;
5696;SDS011;2873;50.966;7.210;2024-02-23T10:42:46;2.10;;;0.70;;
5696;SDS011;2873;50.966;7.210;2024-02-23T10:45:14;0.68;;;0.60;;
5696;SDS011;2873;50.966;7.210;2024-02-23T10:47:41;1.57;;;0.63;;
5696;SDS011;2873;50.966;7.210;2024-02-23T10:50:08;4.20;;;0.55;;
5696;SDS011;2873;50.966;7.210;2024-02-23T10:52:35;3.53;;;0.70;;
5696;SDS011;2873;50.966;7.210;2024-02-23T10:55:01;3.03;;;0.80;;
5696;SDS011;2873;50.966;7.210;2024-02-23T10:57:30;3.65;;;0.50;;
5696;SDS011;2873;50.966;7.210;2024-02-23T10:59:59;2.90;;;1.17;;
5696;SDS011;2873;50.966;7.210;2024-02-23T11:02:25;3.22;;;0.60;;
5696;SDS011;2873;50.966;7.210;2024-02-23T11:04:54;1.30;;;0.50;;
5696;SDS011;2873;50.966;7.210;2024-02-23T11:07:22;2.30;;;0.60;;
5696;SDS011;2873;50.966;7.210;2024-02-23T11:09:53;0.60;;;0.50;;
5696;SDS011;2873;50.966;7.210;2024-02-23T11:12:23;1.20;;;0.60;;
5696;SDS011;2873;50.966;7.210;2024-02-23T11:14:59;3.90;;;0.52;;
5696;SDS011;2873;50.966;7.210;2024-02-23T11:17:26;5.00;;;0.50;;
5696;SDS011;2873;50.966;7.210;2024-02-23T11:19:54;4.40;;;0.60;;
5696;SDS011;2873;50.966;7.210;2024-02-23T11:22:30;1.00;;;0.50;;
5696;SDS011;2873;50.966;7.210;2024-02-23T11:25:03;4.10;;;0.60;;
5696;SDS011;2873;50.966;7.210;2024-02-23T11:27:31;1.30;;;0.60;;
5696;SDS011;2873;50.966;7.210;2024-02-23T11:30:03;2.83;;;0.52;;
5696;SDS011;2873;50.966;7.210;2024-02-23T11:32:38;1.20;;;0.50;;
5696;SDS011;2873;50.966;7.210;2024-02-23T11:35:08;4.73;;;0.67;;
5696;SDS011;2873;50.966;7.210;2024-02-23T11:37:49;0.82;;;0.45;;
5696;SDS011;2873;50.966;7.210;2024-02-23T11:40:26;1.50;;;0.60;;
5696;SDS011;2873;50.966;7.210;2024-02-23T11:42:54;2.03;;;0.60;;
5696;SDS011;2873;50.966;7.210;2024-02-23T11:45:20;2.00;;;0.60;;
5696;SDS011;2873;50.966;7.210;2024-02-23T11:47:46;5.00;;;0.40;;
5696;SDS011;2873;50.966;7.210;2024-02-23T11:50:13;1.70;;;0.50;;
5696;SDS011;2873;50.966;7.210;2024-02-23T11:52:40;2.83;;;0.67;;
5696;SDS011;2873;50.966;7.210;2024-02-23T11:55:06;3.20;;;0.60;;
5696;SDS011;2873;50.966;7.210;2024-02-23T11:57:36;2.13;;;0.77;;
5696;SDS011;2873;50.966;7.210;2024-02-23T12:00:04;2.45;;;0.63;;
5696;SDS011;2873;50.966;7.210;2024-02-23T12:02:37;2.72;;;0.50;;
5696;SDS011;2873;50.966;7.210;2024-02-23T12:05:03;3.40;;;0.60;;
5696;SDS011;2873;50.966;7.210;2024-02-23T12:07:29;3.42;;;0.60;;
5696;SDS011;2873;50.966;7.210;2024-02-23T12:09:56;3.00;;;0.50;;
5696;SDS011;2873;50.966;7.210;2024-02-23T12:12:22;2.50;;;0.50;;
5696;SDS011;2873;50.966;7.210;2024-02-23T12:14:48;1.45;;;0.50;;
5696;SDS011;2873;50.966;7.210;2024-02-23T12:17:14;3.88;;;0.82;;
5696;SDS011;2873;50.966;7.210;2024-02-23T12:19:40;1.57;;;0.67;;
5696;SDS011;2873;50.966;7.210;2024-02-23T12:22:06;1.30;;;0.70;;
5696;SDS011;2873;50.966;7.210;2024-02-23T12:24:32;4.22;;;0.60;;
5696;SDS011;2873;50.966;7.210;2024-02-23T12:26:57;3.55;;;0.73;;
5696;SDS011;2873;50.966;7.210;2024-02-23T12:29:23;2.67;;;0.90;;
5696;SDS011;2873;50.966;7.210;2024-02-23T12:31:49;1.92;;;0.50;;
5696;SDS011;2873;50.966;7.210;2024-02-23T12:34:15;1.73;;;0.60;;
5696;SDS011;2873;50.966;7.210;2024-02-23T12:36:41;2.80;;;0.68;;
5696;SDS011;2873;50.966;7.210;2024-02-23T12:39:06;2.10;;;1.00;;
5696;SDS011;2873;50.966;7.210;2024-02-23T12:41:32;3.50;;;0.60;;
5696;SDS011;2873;50.966;7.210;2024-02-23T12:43:59;3.15;;;0.70;;
5696;SDS011;2873;50.966;7.210;2024-02-23T12:46:24;0.80;;;0.50;;
5696;SDS011;2873;50.966;7.210;2024-02-23T12:48:50;8.80;;;0.80;;
5696;SDS011;2873;50.966;7.210;2024-02-23T12:51:16;4.00;;;1.00;;
5696;SDS011;2873;50.966;7.210;2024-02-23T12:53:42;2.93;;;0.70;;
5696;SDS011;2873;50.966;7.210;2024-02-23T12:56:12;2.00;;;0.60;;
5696;SDS011;2873;50.966;7.210;2024-02-23T12:58:39;3.10;;;0.80;;
5696;SDS011;2873;50.966;7.210;2024-02-23T13:01:06;2.55;;;0.80;;
5696;SDS011;2873;50.966;7.210;2024-02-23T13:03:32;1.50;;;0.60;;
5696;SDS011;2873;50.966;7.210;2024-02-23T13:05:58;4.30;;;0.70;;
5696;SDS011;2873;50.966;7.210;2024-02-23T13:08:24;2.30;;;0.60;;
5696;SDS011;2873;50.966;7.210;2024-02-23T13:10:51;3.35;;;0.93;;
5696;SDS011;2873;50.966;7.210;2024-02-23T13:13:18;2.88;;;0.80;;
5696;SDS011;2873;50.966;7.210;2024-02-23T13:15:44;3.05;;;0.93;;
5696;SDS011;2873;50.966;7.210;2024-02-23T13:18:16;5.05;;;0.90;;
5696;SDS011;2873;50.966;7.210;2024-02-23T13:20:42;4.90;;;0.90;;
5696;SDS011;2873;50.966;7.210;2024-02-23T13:23:08;1.98;;;1.05;;
5696;SDS011;2873;50.966;7.210;2024-02-23T13:25:35;1.25;;;0.90;;
5696;SDS011;2873;50.966;7.210;2024-02-23T13:28:01;4.13;;;1.63;;
5696;SDS011;2873;50.966;7.210;2024-02-23T13:30:27;2.67;;;0.70;;
5696;SDS011;2873;50.966;7.210;2024-02-23T13:32:53;0.60;;;0.60;;
5696;SDS011;2873;50.966;7.210;2024-02-23T13:35:18;1.17;;;0.70;;
5696;SDS011;2873;50.966;7.210;2024-02-23T13:37:44;2.87;;;0.90;;
5696;SDS011;2873;50.966;7.210;2024-02-23T13:40:10;1.53;;;0.60;;
5696;SDS011;2873;50.966;7.210;2024-02-23T13:42:36;0.70;;;0.68;;
5696;SDS011;2873;50.966;7.210;2024-02-23T13:45:04;1.80;;;0.50;;
5696;SDS011;2873;50.966;7.210;2024-02-23T13:47:30;1.90;;;0.70;;
5696;SDS011;2873;50.966;7.210;2024-02-23T13:49:56;6.20;;;0.70;;
5696;SDS011;2873;50.966;7.210;2024-02-23T13:52:22;1.95;;;0.80;;
5696;SDS011;2873;50.966;7.210;2024-02-23T13:54:47;3.10;;;0.93;;
5696;SDS011;2873;50.966;7.210;2024-02-23T13:57:13;2.00;;;1.00;;
5696;SDS011;2873;50.966;7.210;2024-02-23T13:59:38;3.00;;;0.90;;
5696;SDS011;2873;50.966;7.210;2024-02-23T14:02:04;3.72;;;1.08;;
5696;SDS011;2873;50.966;7.210;2024-02-23T14:04:29;2.33;;;1.10;;
5696;SDS011;2873;50.966;7.210;2024-02-23T14:06:55;2.20;;;0.80;;
5696;SDS011;2873;50.966;7.210;2024-02-23T14:09:21;1.10;;;0.90;;
5696;SDS011;2873;50.966;7.210;2024-02-23T14:11:46;2.30;;;0.90;;
5696;SDS011;2873;50.966;7.210;2024-02-23T14:14:12;2.00;;;0.80;;
5696;SDS011;2873;50.966;7.210;2024-02-23T14:16:38;5.20;;;0.90;;
5696;SDS011;2873;50.966;7.210;2024-02-23T14:19:04;3.25;;;0.63;;
5696;SDS011;2873;50.966;7.210;2024-02-23T14:21:30;2.90;;;0.70;;
5696;SDS011;2873;50.966;7.210;2024-02-23T14:23:56;3.20;;;0.70;;
5696;SDS011;2873;50.966;7.210;2024-02-23T14:26:21;1.57;;;0.50;;
5696;SDS011;2873;50.966;7.210;2024-02-23T14:28:47;4.50;;;0.70;;
5696;SDS011;2873;50.966;7.210;2024-02-23T14:31:14;2.20;;;0.45;;
5696;SDS011;2873;50.966;7.210;2024-02-23T14:33:40;3.40;;;0.85;;
5696;SDS011;2873;50.966;7.210;2024-02-23T14:36:06;1.00;;;0.63;;
5696;SDS011;2873;50.966;7.210;2024-02-23T14:38:31;1.92;;;0.95;;
5696;SDS011;2873;50.966;7.210;2024-02-23T14:40:57;2.88;;;1.17;;
5696;SDS011;2873;50.966;7.210;2024-02-23T14:43:23;2.72;;;0.70;;
5696;SDS011;2873;50.966;7.210;2024-02-23T14:45:49;1.97;;;0.57;;
5696;SDS011;2873;50.966;7.210;2024-02-23T14:48:17;1.42;;;0.55;;
5696;SDS011;2873;50.966;7.210;2024-02-23T14:50:43;4.18;;;0.75;;
5696;SDS011;2873;50.966;7.210;2024-02-23T14:53:08;2.40;;;0.70;;
5696;SDS011;2873;50.966;7.210;2024-02-23T14:55:36;2.17;;;0.60;;
5696;SDS011;2873;50.966;7.210;2024-02-23T14:58:01;2.20;;;0.53;;
5696;SDS011;2873;50.966;7.210;2024-02-23T15:00:27;2.00;;;0.60;;
5696;SDS011;2873;50.966;7.210;2024-02-23T15:02:55;2.30;;;0.50;;
5696;SDS011;2873;50.966;7.210;2024-02-23T15:05:22;1.92;;;0.70;;
5696;SDS011;2873;50.966;7.210;2024-02-23T15:07:47;2.50;;;0.73;;
5696;SDS011;2873;50.966;7.210;2024-02-23T15:10:13;2.13;;;0.77;;